SCCI/PUQ METAR and TAF weather

Enter ICAO airport designator
Station Type Date Time Source
SCCI METAR 2021/10/22 19:00 UTC NOAA

SCCI 221900Z 29031KT 9999 FEW040 BKN120 09/01 Q0985 NOSIG


Station Type Date Time Source
SCCI Decoded METAR 2021/10/22 19:00 UTC NOAA

Punta Arenas, Chile (SCCI) 53-00S 070-51W 33M
Oct 22, 2021 - 03:00 PM EDT / 2021.10.22 1900 UTC
Wind: from the WNW (290 degrees) at 36 MPH (31 KT):0
Visibility: greater than 7 mile(s):0
Sky conditions: mostly cloudy
Temperature: 48 F (9 C)
Dew Point: 33 F (1 C)
Relative Humidity: 57%
Pressure (altimeter): 29.09 in. Hg (0985 hPa)
ob: SCCI 221900Z 29031KT 9999 FEW040 BKN120 09/01 Q0985 NOSIG
cycle: 19

Station Type Date Time Source
SCCI TAF 2021/10/22 18:03 UTC NOAA

TAF SCCI 221630Z 2218/2318 31030G45KT 9999 SCT040 BKN100 TX11/2218Z TN01/2306Z
TEMPO 2218/2222 31040G57KT
TEMPO 2220/2302 SHRA SCT018 BKN025
BECMG 2302/2304 25033G50KT SHRA SCT025 SCT120
BECMG 2314/2316 SCT012 BKN030

Example: see airport list